createdAt,value
2017-09-26T00:00:11.286Z,1015.26
2017-09-26T00:00:37.413Z,1015.26
2017-09-26T00:01:03.531Z,1015.24
2017-09-26T00:01:29.684Z,1015.25
2017-09-26T00:01:55.809Z,1015.25
2017-09-26T00:02:21.936Z,1015.24
2017-09-26T00:02:48.051Z,1015.24
2017-09-26T00:03:14.169Z,1015.23
2017-09-26T00:03:40.296Z,1015.23
2017-09-26T00:04:06.414Z,1015.21
2017-09-26T00:04:32.541Z,1015.21
2017-09-26T00:04:58.667Z,1015.21
2017-09-26T00:05:24.816Z,1015.19
2017-09-26T00:05:50.940Z,1015.19
2017-09-26T00:06:17.057Z,1015.17
2017-09-26T00:06:43.197Z,1015.17
2017-09-26T00:07:09.320Z,1015.17
2017-09-26T00:07:35.449Z,1015.17
2017-09-26T00:08:01.574Z,1015.18
2017-09-26T00:08:27.693Z,1015.16
2017-09-26T00:08:53.820Z,1015.13
2017-09-26T00:09:19.939Z,1015.17
2017-09-26T00:09:46.062Z,1015.17
2017-09-26T00:10:12.213Z,1015.17
2017-09-26T00:10:38.302Z,1015.16
2017-09-26T00:11:04.433Z,1015.12
2017-09-26T00:11:30.548Z,1015.16
2017-09-26T00:11:56.669Z,1015.13
2017-09-26T00:12:22.793Z,1015.13
2017-09-26T00:12:48.918Z,1015.13
2017-09-26T00:13:15.037Z,1015.15
2017-09-26T00:13:41.156Z,1015.14
2017-09-26T00:14:07.277Z,1015.19
2017-09-26T00:14:33.398Z,1015.11
2017-09-26T00:14:59.553Z,1015.16
2017-09-26T00:15:25.676Z,1015.13
2017-09-26T00:15:51.795Z,1015.13
2017-09-26T00:16:17.922Z,1015.12
2017-09-26T00:16:44.041Z,1015.13
2017-09-26T00:17:10.162Z,1015.13
2017-09-26T00:17:36.289Z,1015.11
2017-09-26T00:18:02.409Z,1015.13
2017-09-26T00:18:28.536Z,1015.11
2017-09-26T00:18:54.676Z,1015.19
2017-09-26T00:19:20.801Z,1015.13
2017-09-26T00:19:46.959Z,1015.14
2017-09-26T00:20:13.067Z,1015.19
2017-09-26T00:20:39.192Z,1015.15
2017-09-26T00:21:05.345Z,1015.18
2017-09-26T00:21:31.467Z,1015.15
2017-09-26T00:21:57.602Z,1015.17
2017-09-26T00:22:23.733Z,1015.15
2017-09-26T00:22:49.859Z,1015.18
2017-09-26T00:23:15.988Z,1015.2
2017-09-26T00:23:42.109Z,1015.21
2017-09-26T00:24:08.232Z,1015.21
2017-09-26T00:24:34.364Z,1015.24
2017-09-26T00:25:00.485Z,1015.24
2017-09-26T00:25:26.613Z,1015.23
2017-09-26T00:25:52.745Z,1015.24
2017-09-26T00:26:18.868Z,1015.26
2017-09-26T00:26:44.998Z,1015.29
2017-09-26T00:27:11.166Z,1015.27
2017-09-26T00:27:37.297Z,1015.28
2017-09-26T00:28:03.426Z,1015.26
2017-09-26T00:28:29.558Z,1015.26
2017-09-26T00:28:55.681Z,1015.26
2017-09-26T00:29:21.813Z,1015.26
2017-09-26T00:29:47.942Z,1015.24
2017-09-26T00:30:14.070Z,1015.27
2017-09-26T00:30:40.414Z,1015.27
2017-09-26T00:31:06.540Z,1015.26
2017-09-26T00:31:32.705Z,1015.23
2017-09-26T00:31:58.797Z,1015.24
2017-09-26T00:32:24.924Z,1015.23
2017-09-26T00:32:51.047Z,1015.24
2017-09-26T00:33:17.172Z,1015.21
2017-09-26T00:33:43.296Z,1015.23
2017-09-26T00:34:09.420Z,1015.25
2017-09-26T00:34:35.546Z,1015.24
2017-09-26T00:35:01.682Z,1015.22
2017-09-26T00:35:27.816Z,1015.21
2017-09-26T00:35:53.940Z,1015.23
2017-09-26T00:36:20.067Z,1015.21
2017-09-26T00:36:46.232Z,1015.2
2017-09-26T00:37:12.349Z,1015.16
2017-09-26T00:37:38.508Z,1015.21
2017-09-26T00:38:04.634Z,1015.19
2017-09-26T00:38:30.767Z,1015.16
2017-09-26T00:38:56.890Z,1015.19
2017-09-26T00:39:23.017Z,1015.17
2017-09-26T00:39:49.149Z,1015.22
2017-09-26T00:40:15.273Z,1015.18
2017-09-26T00:40:41.400Z,1015.18
2017-09-26T00:41:07.525Z,1015.18
2017-09-26T00:41:33.648Z,1015.18
2017-09-26T00:41:59.799Z,1015.18
2017-09-26T00:42:25.916Z,1015.21
2017-09-26T00:42:52.043Z,1015.18
2017-09-26T00:43:18.168Z,1015.16
2017-09-26T00:43:44.291Z,1015.18
2017-09-26T00:44:10.409Z,1015.17
2017-09-26T00:44:36.536Z,1015.17
2017-09-26T00:45:02.654Z,1015.18
2017-09-26T00:45:28.779Z,1015.21
2017-09-26T00:45:54.904Z,1015.19
2017-09-26T00:46:21.024Z,1015.18
2017-09-26T00:46:47.154Z,1015.22
2017-09-26T00:47:13.277Z,1015.22
2017-09-26T00:47:39.402Z,1015.21
2017-09-26T00:48:05.521Z,1015.22
2017-09-26T00:48:31.648Z,1015.24
2017-09-26T00:48:57.767Z,1015.25
2017-09-26T00:49:23.894Z,1015.25
2017-09-26T00:49:50.020Z,1015.26
2017-09-26T00:50:16.142Z,1015.26
2017-09-26T00:50:42.267Z,1015.25
2017-09-26T00:51:08.390Z,1015.25
2017-09-26T00:51:34.517Z,1015.25
2017-09-26T00:52:00.641Z,1015.24
2017-09-26T00:52:26.761Z,1015.27
2017-09-26T00:52:52.910Z,1015.29
2017-09-26T00:53:19.033Z,1015.28
2017-09-26T00:53:45.147Z,1015.3
2017-09-26T00:54:11.273Z,1015.27
2017-09-26T00:54:37.389Z,1015.3
2017-09-26T00:55:03.513Z,1015.26
2017-09-26T00:55:29.635Z,1015.3
2017-09-26T00:55:55.767Z,1015.28
2017-09-26T00:56:21.893Z,1015.26
2017-09-26T00:56:48.014Z,1015.29
2017-09-26T00:57:14.137Z,1015.29
2017-09-26T00:57:40.252Z,1015.27
2017-09-26T00:58:06.379Z,1015.27
2017-09-26T00:58:32.500Z,1015.24
2017-09-26T00:58:58.627Z,1015.27
2017-09-26T00:59:24.774Z,1015.28
2017-09-26T00:59:50.897Z,1015.29
2017-09-26T01:00:17.023Z,1015.28
2017-09-26T01:00:43.153Z,1015.27
2017-09-26T01:01:09.274Z,1015.28
2017-09-26T01:01:35.397Z,1015.25
2017-09-26T01:02:01.514Z,1015.24
2017-09-26T01:02:27.643Z,1015.18
2017-09-26T01:02:53.763Z,1015.26
2017-09-26T01:03:19.895Z,1015.21
2017-09-26T01:03:46.014Z,1015.22
2017-09-26T01:04:12.135Z,1015.22
2017-09-26T01:04:38.282Z,1015.2
2017-09-26T01:05:04.406Z,1015.26
2017-09-26T01:05:30.524Z,1015.24
2017-09-26T01:05:56.645Z,1015.22
2017-09-26T01:06:22.773Z,1015.24
2017-09-26T01:06:48.899Z,1015.22
2017-09-26T01:07:15.020Z,1015.25
2017-09-26T01:07:41.171Z,1015.25
2017-09-26T01:08:07.289Z,1015.25
2017-09-26T01:08:33.412Z,1015.23
2017-09-26T01:08:59.541Z,1015.27
2017-09-26T01:09:25.656Z,1015.24
2017-09-26T01:09:51.784Z,1015.22
2017-09-26T01:10:17.908Z,1015.26
2017-09-26T01:10:44.027Z,1015.25
2017-09-26T01:11:10.158Z,1015.26
2017-09-26T01:11:36.299Z,1015.3
2017-09-26T01:12:02.420Z,1015.3
2017-09-26T01:12:28.546Z,1015.35
2017-09-26T01:12:54.661Z,1015.27
2017-09-26T01:13:20.800Z,1015.29
2017-09-26T01:13:46.909Z,1015.31
2017-09-26T01:14:13.037Z,1015.32
2017-09-26T01:14:39.159Z,1015.28
2017-09-26T01:15:05.292Z,1015.27
2017-09-26T01:15:31.408Z,1015.24
2017-09-26T01:15:57.536Z,1015.27
2017-09-26T01:16:23.656Z,1015.27
2017-09-26T01:16:49.784Z,1015.3
2017-09-26T01:17:15.929Z,1015.31
2017-09-26T01:17:42.042Z,1015.3
2017-09-26T01:18:08.170Z,1015.28
2017-09-26T01:18:34.296Z,1015.28
2017-09-26T01:19:00.415Z,1015.25
2017-09-26T01:19:26.559Z,1015.27
2017-09-26T01:19:52.654Z,1015.26
2017-09-26T01:20:18.783Z,1015.27
2017-09-26T01:20:44.908Z,1015.28
2017-09-26T01:21:11.035Z,1015.3
2017-09-26T01:21:37.162Z,1015.28
2017-09-26T01:22:03.281Z,1015.27
2017-09-26T01:22:29.400Z,1015.29
2017-09-26T01:22:55.529Z,1015.25
2017-09-26T01:23:21.691Z,1015.28
2017-09-26T01:23:47.821Z,1015.3
2017-09-26T01:24:13.944Z,1015.25
2017-09-26T01:24:40.064Z,1015.29
2017-09-26T01:25:06.191Z,1015.3
2017-09-26T01:25:32.312Z,1015.32
2017-09-26T01:25:58.436Z,1015.32
2017-09-26T01:26:24.554Z,1015.29
2017-09-26T01:26:50.685Z,1015.31
2017-09-26T01:27:16.803Z,1015.29
2017-09-26T01:27:42.924Z,1015.35
2017-09-26T01:28:09.049Z,1015.34
2017-09-26T01:28:35.169Z,1015.32
2017-09-26T01:29:01.297Z,1015.3
2017-09-26T01:29:27.423Z,1015.33
2017-09-26T01:29:53.544Z,1015.28
2017-09-26T01:30:19.664Z,1015.3
2017-09-26T01:30:45.814Z,1015.29
2017-09-26T01:31:11.939Z,1015.29
2017-09-26T01:31:38.058Z,1015.29
2017-09-26T01:32:04.187Z,1015.25
2017-09-26T01:32:30.304Z,1015.3
2017-09-26T01:32:56.453Z,1015.28
2017-09-26T01:33:22.571Z,1015.25
2017-09-26T01:33:48.692Z,1015.25
2017-09-26T01:34:14.821Z,1015.27
2017-09-26T01:34:40.942Z,1015.28
2017-09-26T01:35:07.076Z,1015.27
2017-09-26T01:35:33.202Z,1015.25
2017-09-26T01:35:59.320Z,1015.28
2017-09-26T01:36:25.448Z,1015.25
2017-09-26T01:36:51.565Z,1015.24
2017-09-26T01:37:17.691Z,1015.28
2017-09-26T01:37:43.812Z,1015.29
2017-09-26T01:38:09.936Z,1015.26
2017-09-26T01:38:36.055Z,1015.27
2017-09-26T01:39:02.198Z,1015.3
2017-09-26T01:39:28.321Z,1015.28
2017-09-26T01:39:54.439Z,1015.3
2017-09-26T01:40:20.559Z,1015.26
2017-09-26T01:40:46.689Z,1015.29
2017-09-26T01:41:12.811Z,1015.27
2017-09-26T01:41:38.937Z,1015.31
2017-09-26T01:42:05.058Z,1015.3
2017-09-26T01:42:31.186Z,1015.29
2017-09-26T01:42:57.296Z,1015.28
2017-09-26T01:43:23.420Z,1015.31
2017-09-26T01:43:49.569Z,1015.28
2017-09-26T01:44:15.698Z,1015.31
2017-09-26T01:44:41.822Z,1015.33
2017-09-26T01:45:07.968Z,1015.3
2017-09-26T01:45:34.089Z,1015.32
2017-09-26T01:46:00.217Z,1015.31
2017-09-26T01:46:26.337Z,1015.31
2017-09-26T01:46:52.465Z,1015.33
2017-09-26T01:47:18.584Z,1015.28
2017-09-26T01:47:44.705Z,1015.33
2017-09-26T01:48:10.834Z,1015.28
2017-09-26T01:48:36.958Z,1015.27
2017-09-26T01:49:03.076Z,1015.28
2017-09-26T01:49:29.204Z,1015.31
2017-09-26T01:49:55.327Z,1015.29
2017-09-26T01:50:21.449Z,1015.24
2017-09-26T01:50:47.592Z,1015.29
2017-09-26T01:51:13.714Z,1015.25
2017-09-26T01:51:39.842Z,1015.28
2017-09-26T01:52:05.960Z,1015.31
2017-09-26T01:52:32.088Z,1015.28
2017-09-26T01:52:58.212Z,1015.27
2017-09-26T01:53:24.334Z,1015.27
2017-09-26T01:53:50.454Z,1015.28
2017-09-26T01:54:16.581Z,1015.29
2017-09-26T01:54:42.704Z,1015.3
2017-09-26T01:55:08.845Z,1015.3
2017-09-26T01:55:34.974Z,1015.29
2017-09-26T01:56:01.091Z,1015.27
2017-09-26T01:56:27.218Z,1015.26
2017-09-26T01:56:53.345Z,1015.3
2017-09-26T01:57:19.465Z,1015.29
2017-09-26T01:57:45.595Z,1015.3
2017-09-26T01:58:11.717Z,1015.3
2017-09-26T01:58:37.832Z,1015.29
2017-09-26T01:59:03.959Z,1015.36
2017-09-26T01:59:30.079Z,1015.34
2017-09-26T01:59:56.224Z,1015.3
2017-09-26T02:00:22.350Z,1015.33
2017-09-26T02:00:48.471Z,1015.35
2017-09-26T02:01:14.599Z,1015.32
2017-09-26T02:01:40.720Z,1015.34
2017-09-26T02:02:06.846Z,1015.34
2017-09-26T02:02:32.968Z,1015.33
2017-09-26T02:02:59.098Z,1015.33
2017-09-26T02:03:25.227Z,1015.33
2017-09-26T02:03:51.342Z,1015.33
2017-09-26T02:04:17.459Z,1015.32
2017-09-26T02:04:43.587Z,1015.3
2017-09-26T02:05:09.714Z,1015.33
2017-09-26T02:05:35.850Z,1015.34
2017-09-26T02:06:01.977Z,1015.37
2017-09-26T02:06:28.114Z,1015.37
2017-09-26T02:06:54.244Z,1015.36
2017-09-26T02:07:20.365Z,1015.38
2017-09-26T02:07:46.494Z,1015.38
2017-09-26T02:08:12.610Z,1015.4
2017-09-26T02:08:38.732Z,1015.35
2017-09-26T02:09:04.859Z,1015.41
2017-09-26T02:09:30.977Z,1015.37
2017-09-26T02:09:57.104Z,1015.38
2017-09-26T02:10:23.228Z,1015.37
2017-09-26T02:10:49.385Z,1015.36
2017-09-26T02:11:15.472Z,1015.4
2017-09-26T02:11:41.591Z,1015.35
2017-09-26T02:12:07.715Z,1015.36
2017-09-26T02:12:33.842Z,1015.35
2017-09-26T02:12:59.982Z,1015.34
2017-09-26T02:13:26.109Z,1015.37
2017-09-26T02:13:52.236Z,1015.33
2017-09-26T02:14:18.358Z,1015.35
2017-09-26T02:14:44.477Z,1015.36
2017-09-26T02:15:10.605Z,1015.34
2017-09-26T02:15:36.723Z,1015.35
2017-09-26T02:16:02.856Z,1015.36
2017-09-26T02:16:28.995Z,1015.37
2017-09-26T02:16:55.143Z,1015.33
2017-09-26T02:17:21.271Z,1015.4
2017-09-26T02:17:47.392Z,1015.38
2017-09-26T02:18:13.516Z,1015.42
2017-09-26T02:18:39.637Z,1015.38
2017-09-26T02:19:05.768Z,1015.4
2017-09-26T02:19:31.885Z,1015.37
2017-09-26T02:19:58.034Z,1015.37
2017-09-26T02:20:24.151Z,1015.39
2017-09-26T02:20:50.280Z,1015.4
2017-09-26T02:21:16.404Z,1015.38
2017-09-26T02:21:42.528Z,1015.38
2017-09-26T02:22:08.652Z,1015.37
2017-09-26T02:22:34.780Z,1015.39
2017-09-26T02:23:00.897Z,1015.4
2017-09-26T02:23:27.025Z,1015.37
2017-09-26T02:23:53.138Z,1015.37
2017-09-26T02:24:19.261Z,1015.36
2017-09-26T02:24:45.410Z,1015.36
2017-09-26T02:25:11.548Z,1015.38
2017-09-26T02:25:37.654Z,1015.34
2017-09-26T02:26:03.770Z,1015.33
2017-09-26T02:26:29.900Z,1015.35
2017-09-26T02:26:56.045Z,1015.32
2017-09-26T02:27:22.166Z,1015.35
2017-09-26T02:27:48.300Z,1015.32
2017-09-26T02:28:14.424Z,1015.35
2017-09-26T02:28:40.544Z,1015.34
2017-09-26T02:29:06.663Z,1015.36
2017-09-26T02:29:32.782Z,1015.36
2017-09-26T02:29:58.911Z,1015.36
2017-09-26T02:30:25.031Z,1015.38
2017-09-26T02:30:51.177Z,1015.34
2017-09-26T02:31:17.304Z,1015.38
2017-09-26T02:31:43.429Z,1015.37
2017-09-26T02:32:09.567Z,1015.36
2017-09-26T02:32:35.692Z,1015.35
2017-09-26T02:33:01.818Z,1015.35
2017-09-26T02:33:27.956Z,1015.35
2017-09-26T02:33:54.085Z,1015.36
2017-09-26T02:34:20.207Z,1015.35
2017-09-26T02:34:46.328Z,1015.37
2017-09-26T02:35:12.455Z,1015.37
2017-09-26T02:35:38.576Z,1015.33
2017-09-26T02:36:04.705Z,1015.38
2017-09-26T02:36:30.823Z,1015.37
2017-09-26T02:36:56.951Z,1015.38
2017-09-26T02:37:23.077Z,1015.37
2017-09-26T02:37:49.223Z,1015.37
2017-09-26T02:38:15.328Z,1015.39
2017-09-26T02:38:41.447Z,1015.38
2017-09-26T02:39:07.568Z,1015.38
2017-09-26T02:39:33.696Z,1015.42
2017-09-26T02:39:59.812Z,1015.39
2017-09-26T02:40:25.959Z,1015.41
2017-09-26T02:40:52.084Z,1015.4
2017-09-26T02:41:18.210Z,1015.44
2017-09-26T02:41:44.361Z,1015.42
2017-09-26T02:42:10.485Z,1015.42
2017-09-26T02:42:36.594Z,1015.41
2017-09-26T02:43:02.747Z,1015.41
2017-09-26T02:43:28.890Z,1015.39
2017-09-26T02:43:55.015Z,1015.39
2017-09-26T02:44:21.141Z,1015.39
2017-09-26T02:44:47.259Z,1015.39
2017-09-26T02:45:13.385Z,1015.35
2017-09-26T02:45:39.506Z,1015.38
2017-09-26T02:46:05.651Z,1015.35
2017-09-26T02:46:31.775Z,1015.33
2017-09-26T02:46:57.896Z,1015.37
2017-09-26T02:47:24.048Z,1015.38
2017-09-26T02:47:50.169Z,1015.37
2017-09-26T02:48:16.308Z,1015.35
2017-09-26T02:48:42.431Z,1015.37
2017-09-26T02:49:08.547Z,1015.36
2017-09-26T02:49:34.694Z,1015.39
2017-09-26T02:50:00.843Z,1015.38
2017-09-26T02:50:26.966Z,1015.4
2017-09-26T02:50:53.086Z,1015.38
2017-09-26T02:51:19.214Z,1015.4
2017-09-26T02:51:45.331Z,1015.4
2017-09-26T02:52:11.461Z,1015.42
2017-09-26T02:52:37.580Z,1015.43
2017-09-26T02:53:03.702Z,1015.42
2017-09-26T02:53:29.831Z,1015.43
2017-09-26T02:53:55.949Z,1015.43
2017-09-26T02:54:22.077Z,1015.41
2017-09-26T02:54:48.196Z,1015.4
2017-09-26T02:55:14.324Z,1015.38
2017-09-26T02:55:40.448Z,1015.41
2017-09-26T02:56:06.566Z,1015.38
2017-09-26T02:56:32.691Z,1015.42
2017-09-26T02:56:58.810Z,1015.43
2017-09-26T02:57:24.941Z,1015.42
2017-09-26T02:57:51.060Z,1015.42
2017-09-26T02:58:17.180Z,1015.42
2017-09-26T02:58:43.307Z,1015.38
2017-09-26T02:59:09.427Z,1015.41
2017-09-26T02:59:35.556Z,1015.4
2017-09-26T03:00:01.677Z,1015.43
2017-09-26T03:00:27.836Z,1015.43
2017-09-26T03:00:53.923Z,1015.41
2017-09-26T03:01:20.051Z,1015.42
2017-09-26T03:01:46.175Z,1015.45
2017-09-26T03:02:12.294Z,1015.42
2017-09-26T03:02:38.423Z,1015.4
2017-09-26T03:03:04.541Z,1015.43
2017-09-26T03:03:30.661Z,1015.43
2017-09-26T03:03:56.788Z,1015.42
2017-09-26T03:04:22.903Z,1015.41
2017-09-26T03:04:49.036Z,1015.4
2017-09-26T03:05:15.160Z,1015.42
2017-09-26T03:05:41.282Z,1015.42
2017-09-26T03:06:07.429Z,1015.41
2017-09-26T03:06:33.552Z,1015.42
2017-09-26T03:06:59.672Z,1015.41
2017-09-26T03:07:25.790Z,1015.42
2017-09-26T03:07:51.920Z,1015.46
2017-09-26T03:08:18.038Z,1015.43
2017-09-26T03:08:44.167Z,1015.42
2017-09-26T03:09:10.289Z,1015.44
2017-09-26T03:09:36.432Z,1015.43
2017-09-26T03:10:02.577Z,1015.45
2017-09-26T03:10:28.697Z,1015.45
2017-09-26T03:10:54.825Z,1015.43
2017-09-26T03:11:20.950Z,1015.39
2017-09-26T03:11:47.074Z,1015.43
2017-09-26T03:12:13.204Z,1015.44
2017-09-26T03:12:39.327Z,1015.47
2017-09-26T03:13:05.440Z,1015.43
2017-09-26T03:13:31.566Z,1015.46
2017-09-26T03:13:57.684Z,1015.45
2017-09-26T03:14:23.812Z,1015.44
2017-09-26T03:14:49.954Z,1015.47
2017-09-26T03:15:16.083Z,1015.45
2017-09-26T03:15:42.229Z,1015.49
2017-09-26T03:16:08.348Z,1015.49
2017-09-26T03:16:34.477Z,1015.48
2017-09-26T03:17:00.596Z,1015.48
2017-09-26T03:17:26.720Z,1015.5
2017-09-26T03:17:52.870Z,1015.51
2017-09-26T03:18:18.988Z,1015.51
2017-09-26T03:18:45.117Z,1015.46
2017-09-26T03:19:11.243Z,1015.5
2017-09-26T03:19:37.364Z,1015.49
2017-09-26T03:20:03.511Z,1015.5
2017-09-26T03:20:29.654Z,1015.47
2017-09-26T03:20:55.783Z,1015.45
2017-09-26T03:21:21.924Z,1015.48
2017-09-26T03:21:48.044Z,1015.47
2017-09-26T03:22:14.172Z,1015.47
2017-09-26T03:22:40.297Z,1015.49
2017-09-26T03:23:06.417Z,1015.47
2017-09-26T03:23:32.545Z,1015.48
2017-09-26T03:23:58.668Z,1015.49
2017-09-26T03:24:24.808Z,1015.49
2017-09-26T03:24:50.939Z,1015.52
2017-09-26T03:25:17.059Z,1015.5
2017-09-26T03:25:43.235Z,1015.52
2017-09-26T03:26:09.351Z,1015.51
2017-09-26T03:26:35.498Z,1015.53
2017-09-26T03:27:01.623Z,1015.5
2017-09-26T03:27:27.744Z,1015.54
2017-09-26T03:27:53.861Z,1015.52
2017-09-26T03:28:19.990Z,1015.54
2017-09-26T03:28:46.115Z,1015.53
2017-09-26T03:29:12.253Z,1015.55
2017-09-26T03:29:38.382Z,1015.53
2017-09-26T03:30:04.506Z,1015.54
2017-09-26T03:30:30.642Z,1015.56
2017-09-26T03:30:56.761Z,1015.55
2017-09-26T03:31:22.877Z,1015.56
2017-09-26T03:31:49.005Z,1015.56
2017-09-26T03:32:15.122Z,1015.59
2017-09-26T03:32:41.251Z,1015.57
2017-09-26T03:33:07.372Z,1015.59
2017-09-26T03:33:33.499Z,1015.59
2017-09-26T03:33:59.626Z,1015.58
2017-09-26T03:34:25.743Z,1015.59
2017-09-26T03:34:51.864Z,1015.55
2017-09-26T03:35:17.993Z,1015.56
2017-09-26T03:35:44.117Z,1015.54
2017-09-26T03:36:10.236Z,1015.56
2017-09-26T03:36:36.363Z,1015.54
2017-09-26T03:37:02.503Z,1015.55
2017-09-26T03:37:28.622Z,1015.53
2017-09-26T03:37:54.743Z,1015.56
2017-09-26T03:38:20.864Z,1015.56
2017-09-26T03:38:46.993Z,1015.59
2017-09-26T03:39:13.143Z,1015.53
2017-09-26T03:39:39.267Z,1015.55
2017-09-26T03:40:05.391Z,1015.56
2017-09-26T03:40:31.506Z,1015.56
2017-09-26T03:40:57.630Z,1015.55
2017-09-26T03:41:23.756Z,1015.59
2017-09-26T03:41:49.879Z,1015.56
2017-09-26T03:42:15.995Z,1015.6
2017-09-26T03:42:42.145Z,1015.58
2017-09-26T03:43:08.271Z,1015.57
2017-09-26T03:43:34.400Z,1015.53
2017-09-26T03:44:00.524Z,1015.56
2017-09-26T03:44:26.643Z,1015.56
2017-09-26T03:44:52.769Z,1015.57
2017-09-26T03:45:18.893Z,1015.56
2017-09-26T03:45:45.011Z,1015.59
2017-09-26T03:46:11.136Z,1015.56
2017-09-26T03:46:37.260Z,1015.58
2017-09-26T03:47:03.385Z,1015.56
2017-09-26T03:47:29.504Z,1015.57
2017-09-26T03:47:55.633Z,1015.6
2017-09-26T03:48:21.752Z,1015.59
2017-09-26T03:48:47.873Z,1015.62
2017-09-26T03:49:13.999Z,1015.6
2017-09-26T03:49:40.128Z,1015.62
2017-09-26T03:50:06.249Z,1015.59
2017-09-26T03:50:32.369Z,1015.65
2017-09-26T03:50:58.500Z,1015.61
2017-09-26T03:51:24.624Z,1015.61
2017-09-26T03:51:50.744Z,1015.59
2017-09-26T03:52:16.862Z,1015.59
2017-09-26T03:52:43.025Z,1015.63
2017-09-26T03:53:09.109Z,1015.62
2017-09-26T03:53:35.238Z,1015.59
2017-09-26T03:54:01.363Z,1015.6
2017-09-26T03:54:27.479Z,1015.62
2017-09-26T03:54:53.608Z,1015.58
2017-09-26T03:55:19.726Z,1015.58
2017-09-26T03:55:45.853Z,1015.6
2017-09-26T03:56:11.993Z,1015.59
2017-09-26T03:56:38.119Z,1015.54
2017-09-26T03:57:04.238Z,1015.59
2017-09-26T03:57:30.360Z,1015.6
2017-09-26T03:57:56.487Z,1015.58
2017-09-26T03:58:22.604Z,1015.59
2017-09-26T03:58:48.732Z,1015.6
2017-09-26T03:59:14.853Z,1015.59
2017-09-26T03:59:40.976Z,1015.56
2017-09-26T04:00:07.142Z,1015.55
2017-09-26T04:00:33.265Z,1015.57
2017-09-26T04:00:59.391Z,1015.59
2017-09-26T04:01:25.506Z,1015.55
2017-09-26T04:01:51.634Z,1015.55
2017-09-26T04:02:17.761Z,1015.57
2017-09-26T04:02:43.889Z,1015.56
2017-09-26T04:03:10.009Z,1015.58
2017-09-26T04:03:36.134Z,1015.57
2017-09-26T04:04:02.261Z,1015.54
2017-09-26T04:04:28.412Z,1015.55
2017-09-26T04:04:54.536Z,1015.56
2017-09-26T04:05:20.663Z,1015.54
2017-09-26T04:05:46.805Z,1015.57
2017-09-26T04:06:12.927Z,1015.55
2017-09-26T04:06:39.044Z,1015.54
2017-09-26T04:07:05.169Z,1015.55
2017-09-26T04:07:31.315Z,1015.56
2017-09-26T04:07:57.442Z,1015.56
2017-09-26T04:08:23.555Z,1015.56
2017-09-26T04:08:49.683Z,1015.58
2017-09-26T04:09:15.809Z,1015.57
2017-09-26T04:09:41.930Z,1015.56
2017-09-26T04:10:08.059Z,1015.53
2017-09-26T04:10:34.177Z,1015.55
2017-09-26T04:11:00.302Z,1015.56
2017-09-26T04:11:26.421Z,1015.56
2017-09-26T04:11:52.548Z,1015.58
2017-09-26T04:12:18.677Z,1015.56
2017-09-26T04:12:44.815Z,1015.56
2017-09-26T04:13:10.936Z,1015.56
2017-09-26T04:13:37.064Z,1015.57
2017-09-26T04:14:03.190Z,1015.53
2017-09-26T04:14:29.306Z,1015.58
2017-09-26T04:14:55.431Z,1015.56
2017-09-26T04:15:21.553Z,1015.55
2017-09-26T04:15:47.677Z,1015.55
2017-09-26T04:16:13.796Z,1015.54
2017-09-26T04:16:39.920Z,1015.55
2017-09-26T04:17:06.045Z,1015.52
2017-09-26T04:17:32.163Z,1015.54
2017-09-26T04:17:58.290Z,1015.51
2017-09-26T04:18:24.416Z,1015.53
2017-09-26T04:18:50.535Z,1015.52
2017-09-26T04:19:16.673Z,1015.53
2017-09-26T04:19:42.783Z,1015.54
2017-09-26T04:20:08.904Z,1015.52
2017-09-26T04:20:35.033Z,1015.55
2017-09-26T04:21:01.151Z,1015.54
2017-09-26T04:21:27.278Z,1015.56
2017-09-26T04:21:53.399Z,1015.54
2017-09-26T04:22:19.523Z,1015.56
2017-09-26T04:22:45.640Z,1015.56
2017-09-26T04:23:11.774Z,1015.55
2017-09-26T04:23:37.895Z,1015.57
2017-09-26T04:24:04.014Z,1015.55
2017-09-26T04:24:30.147Z,1015.54
2017-09-26T04:24:56.272Z,1015.55
2017-09-26T04:25:22.396Z,1015.53
2017-09-26T04:25:48.513Z,1015.53
2017-09-26T04:26:14.655Z,1015.54
2017-09-26T04:26:40.774Z,1015.55
2017-09-26T04:27:06.899Z,1015.56
2017-09-26T04:27:33.017Z,1015.56
2017-09-26T04:27:59.141Z,1015.53
2017-09-26T04:28:25.274Z,1015.53
2017-09-26T04:28:51.420Z,1015.58
2017-09-26T04:29:17.542Z,1015.58
2017-09-26T04:29:43.671Z,1015.57
2017-09-26T04:30:09.784Z,1015.57
2017-09-26T04:30:35.909Z,1015.54
2017-09-26T04:31:02.027Z,1015.56
2017-09-26T04:31:28.155Z,1015.56
2017-09-26T04:31:54.279Z,1015.59
2017-09-26T04:32:20.404Z,1015.57
2017-09-26T04:32:46.523Z,1015.59
2017-09-26T04:33:12.651Z,1015.56
2017-09-26T04:33:38.770Z,1015.54
2017-09-26T04:34:04.890Z,1015.55
2017-09-26T04:34:31.018Z,1015.53
2017-09-26T04:34:57.145Z,1015.53
2017-09-26T04:35:23.264Z,1015.57
2017-09-26T04:35:49.385Z,1015.55
2017-09-26T04:36:15.512Z,1015.57
2017-09-26T04:36:41.630Z,1015.54
2017-09-26T04:37:07.780Z,1015.54
2017-09-26T04:37:33.904Z,1015.53
2017-09-26T04:38:00.041Z,1015.53
2017-09-26T04:38:26.162Z,1015.54
2017-09-26T04:38:52.317Z,1015.52
2017-09-26T04:39:18.454Z,1015.52
2017-09-26T04:39:44.580Z,1015.54
2017-09-26T04:40:10.707Z,1015.53
2017-09-26T04:40:36.829Z,1015.52
2017-09-26T04:41:02.956Z,1015.55
2017-09-26T04:41:29.072Z,1015.55
2017-09-26T04:41:55.195Z,1015.53
2017-09-26T04:42:21.325Z,1015.52
2017-09-26T04:42:47.444Z,1015.53
2017-09-26T04:43:13.570Z,1015.55
2017-09-26T04:43:39.699Z,1015.53
2017-09-26T04:44:05.815Z,1015.54
2017-09-26T04:44:31.939Z,1015.55
2017-09-26T04:44:58.059Z,1015.56
2017-09-26T04:45:24.208Z,1015.54
2017-09-26T04:45:50.331Z,1015.57
2017-09-26T04:46:16.455Z,1015.6
2017-09-26T04:46:42.573Z,1015.57
2017-09-26T04:47:08.696Z,1015.59
2017-09-26T04:47:34.824Z,1015.61
2017-09-26T04:48:00.941Z,1015.59
2017-09-26T04:48:27.076Z,1015.57
2017-09-26T04:48:53.199Z,1015.59
2017-09-26T04:49:19.318Z,1015.59
2017-09-26T04:49:45.449Z,1015.58
2017-09-26T04:50:11.574Z,1015.59
2017-09-26T04:50:37.711Z,1015.59
2017-09-26T04:51:03.834Z,1015.6
2017-09-26T04:51:29.961Z,1015.63
2017-09-26T04:51:56.078Z,1015.62
2017-09-26T04:52:22.201Z,1015.63
2017-09-26T04:52:48.322Z,1015.61
2017-09-26T04:53:14.444Z,1015.63
2017-09-26T04:53:40.567Z,1015.62
2017-09-26T04:54:06.691Z,1015.6
2017-09-26T04:54:32.849Z,1015.65
2017-09-26T04:54:58.959Z,1015.63
2017-09-26T04:55:25.087Z,1015.6
2017-09-26T04:55:51.205Z,1015.6
2017-09-26T04:56:17.334Z,1015.63
2017-09-26T04:56:43.453Z,1015.65
2017-09-26T04:57:09.578Z,1015.61
2017-09-26T04:57:35.705Z,1015.66
2017-09-26T04:58:01.824Z,1015.63
2017-09-26T04:58:27.946Z,1015.64
2017-09-26T04:58:54.074Z,1015.63
2017-09-26T04:59:20.201Z,1015.68
2017-09-26T04:59:46.320Z,1015.64
2017-09-26T05:00:12.443Z,1015.63
2017-09-26T05:00:38.572Z,1015.65
2017-09-26T05:01:04.691Z,1015.65
2017-09-26T05:01:30.817Z,1015.66
2017-09-26T05:01:56.937Z,1015.65
2017-09-26T05:02:23.066Z,1015.67
2017-09-26T05:02:49.190Z,1015.66
2017-09-26T05:03:15.309Z,1015.67
2017-09-26T05:03:41.454Z,1015.65
2017-09-26T05:04:07.586Z,1015.65
2017-09-26T05:04:33.709Z,1015.66
2017-09-26T05:04:59.828Z,1015.67
2017-09-26T05:05:25.951Z,1015.68
2017-09-26T05:05:52.077Z,1015.67
2017-09-26T05:06:18.202Z,1015.68
2017-09-26T05:06:44.330Z,1015.68
2017-09-26T05:07:10.455Z,1015.65
2017-09-26T05:07:36.574Z,1015.67
2017-09-26T05:08:02.696Z,1015.69
2017-09-26T05:08:28.843Z,1015.71
2017-09-26T05:08:54.961Z,1015.67
2017-09-26T05:09:21.086Z,1015.68
2017-09-26T05:09:47.214Z,1015.69
2017-09-26T05:10:13.332Z,1015.7
2017-09-26T05:10:39.446Z,1015.71
2017-09-26T05:11:05.571Z,1015.69
2017-09-26T05:11:31.703Z,1015.7
2017-09-26T05:11:57.826Z,1015.72
2017-09-26T05:12:23.950Z,1015.73
2017-09-26T05:12:50.078Z,1015.73
2017-09-26T05:13:16.220Z,1015.74
2017-09-26T05:13:42.342Z,1015.76
2017-09-26T05:14:08.459Z,1015.78
2017-09-26T05:14:34.581Z,1015.76
2017-09-26T05:15:00.705Z,1015.77
2017-09-26T05:15:26.852Z,1015.78
2017-09-26T05:15:52.977Z,1015.77
2017-09-26T05:16:19.090Z,1015.8
2017-09-26T05:16:45.217Z,1015.79